Time;durP1;ratioP1;P1;durP2;ratioP2;P2;SDS_P1;SDS_P2;PMS_P1;PMS_P2;Temp;Humidity;BMP_temperature;BMP_pressure;BME280_temperature;BME280_humidity;BME280_pressure;Samples;Min_cycle;Max_cycle;Signal;HPM_P1;HPM_P2
2024/01/28 00:01:29;;;;;;;20.73;7.37;;;;;;;;;;5107546;28;20039;-60
2024/01/28 00:03:55;;;;;;;22.23;8.05;;;;;;;;;;5109883;28;20046;-61
2024/01/28 00:06:20;;;;;;;23.17;7.80;;;;;;;;;;5108401;28;20032;-62
2024/01/28 00:08:46;;;;;;;15.90;9.02;;;;;;;;;;5109194;28;20036;-61
2024/01/28 00:11:11;;;;;;;22.90;7.73;;;;;;;;;;5110820;28;20028;-58
2024/01/28 00:13:37;;;;;;;27.27;8.73;;;;;;;;;;5106112;28;20025;-60
2024/01/28 00:16:02;;;;;;;25.37;8.27;;;;;;;;;;5111891;28;20261;-60
2024/01/28 00:18:29;;;;;;;25.17;7.80;;;;;;;;;;5103799;28;20115;-58
2024/01/28 00:20:55;;;;;;;21.95;8.70;;;;;;;;;;5106303;28;20028;-60
2024/01/28 00:23:20;;;;;;;20.30;8.03;;;;;;;;;;5114141;28;20035;-57
2024/01/28 00:25:46;;;;;;;28.58;8.40;;;;;;;;;;5104881;28;20031;-59
2024/01/28 00:28:11;;;;;;;22.83;8.60;;;;;;;;;;5112127;28;20085;-60
2024/01/28 00:30:36;;;;;;;31.90;9.00;;;;;;;;;;5114216;28;20028;-60
2024/01/28 00:33:02;;;;;;;25.30;9.10;;;;;;;;;;5125023;28;20084;-60
2024/01/28 00:35:27;;;;;;;16.53;8.10;;;;;;;;;;5114192;28;20039;-59
2024/01/28 00:37:55;;;;;;;23.70;8.85;;;;;;;;;;5114984;28;20032;-61
2024/01/28 00:40:20;;;;;;;18.35;9.55;;;;;;;;;;5114249;28;20050;-60
2024/01/28 00:42:46;;;;;;;27.50;8.63;;;;;;;;;;5113926;28;20051;-59
2024/01/28 00:45:11;;;;;;;26.57;9.37;;;;;;;;;;5115302;28;20043;-60
2024/01/28 00:47:39;;;;;;;32.10;8.82;;;;;;;;;;5117138;28;20082;-59
2024/01/28 00:50:05;;;;;;;26.33;9.02;;;;;;;;;;5113904;28;20040;-58
2024/01/28 00:52:30;;;;;;;19.13;8.55;;;;;;;;;;5123474;28;20035;-57
2024/01/28 00:54:55;;;;;;;18.83;8.07;;;;;;;;;;5119810;28;20031;-58
2024/01/28 00:57:21;;;;;;;21.67;9.17;;;;;;;;;;5131919;28;20047;-60
2024/01/28 00:59:46;;;;;;;28.20;9.83;;;;;;;;;;5125042;28;20299;-57
2024/01/28 01:02:12;;;;;;;27.97;8.40;;;;;;;;;;5124040;28;20042;-60
2024/01/28 01:04:37;;;;;;;23.57;8.27;;;;;;;;;;5115829;28;20271;-58
2024/01/28 01:07:03;;;;;;;24.93;8.17;;;;;;;;;;5120553;28;20040;-60
2024/01/28 01:09:28;;;;;;;20.80;8.20;;;;;;;;;;5125321;28;20260;-62
2024/01/28 01:11:54;;;;;;;27.50;9.70;;;;;;;;;;5120410;28;20062;-59
2024/01/28 01:14:20;;;;;;;23.63;9.18;;;;;;;;;;5117560;28;20043;-59
2024/01/28 01:16:46;;;;;;;37.20;8.75;;;;;;;;;;5116969;28;20036;-59
2024/01/28 01:19:11;;;;;;;24.60;8.63;;;;;;;;;;5118590;28;20036;-60
2024/01/28 01:21:37;;;;;;;24.70;8.68;;;;;;;;;;5117137;28;20089;-58
2024/01/28 01:24:02;;;;;;;31.27;9.33;;;;;;;;;;5117346;28;20048;-60
2024/01/28 01:26:28;;;;;;;25.52;9.95;;;;;;;;;;5122205;28;20023;-60
2024/01/28 01:28:53;;;;;;;20.98;8.73;;;;;;;;;;5107150;28;20058;-60
2024/01/28 01:31:19;;;;;;;26.63;9.97;;;;;;;;;;5120504;28;20056;-61
2024/01/28 01:33:45;;;;;;;26.27;10.13;;;;;;;;;;5121702;28;20024;-62
2024/01/28 01:36:11;;;;;;;21.13;8.97;;;;;;;;;;5127970;28;20035;-60
2024/01/28 01:38:36;;;;;;;27.83;9.73;;;;;;;;;;5118298;28;20261;-60
2024/01/28 01:41:01;;;;;;;30.03;10.37;;;;;;;;;;5117057;28;20028;-60
2024/01/28 01:43:28;;;;;;;32.58;10.00;;;;;;;;;;5117212;28;20032;-59
2024/01/28 01:45:53;;;;;;;21.65;9.13;;;;;;;;;;5123789;28;20083;-63
2024/01/28 01:48:20;;;;;;;29.17;10.20;;;;;;;;;;5118526;28;20024;-58
2024/01/28 01:50:45;;;;;;;26.25;10.63;;;;;;;;;;5124391;28;20032;-62
2024/01/28 01:53:10;;;;;;;25.33;10.17;;;;;;;;;;5115767;28;20032;-60
2024/01/28 01:55:40;;;;;;;28.70;9.75;;;;;;;;;;5116030;28;20050;-60
2024/01/28 01:58:05;;;;;;;21.88;9.63;;;;;;;;;;5116497;28;20043;-64
2024/01/28 02:00:31;;;;;;;21.42;9.30;;;;;;;;;;5111620;28;20402;-61
2024/01/28 02:02:58;;;;;;;26.80;10.55;;;;;;;;;;5110207;28;20032;-61
2024/01/28 02:05:23;;;;;;;24.70;9.43;;;;;;;;;;5112290;28;20043;-61
2024/01/28 02:07:49;;;;;;;31.87;10.50;;;;;;;;;;5108323;28;20451;-62
2024/01/28 02:10:14;;;;;;;27.45;9.63;;;;;;;;;;5114256;28;20024;-61
2024/01/28 02:12:42;;;;;;;22.37;10.57;;;;;;;;;;5112850;28;20046;-62
2024/01/28 02:15:11;;;;;;;30.65;10.07;;;;;;;;;;5111786;28;20032;-61
2024/01/28 02:17:37;;;;;;;28.13;10.95;;;;;;;;;;5108918;28;20032;-60
2024/01/28 02:20:02;;;;;;;31.03;10.77;;;;;;;;;;5111349;28;20034;-60
2024/01/28 02:22:27;;;;;;;24.02;10.20;;;;;;;;;;5111259;28;20028;-61
2024/01/28 02:24:53;;;;;;;24.40;8.33;;;;;;;;;;5116770;28;20039;-59
2024/01/28 02:27:21;;;;;;;;;;;;;;;;;;5113888;28;20028;-62
2024/01/28 02:29:46;;;;;;;44.50;10.30;;;;;;;;;;5113135;28;19912;-63
2024/01/28 02:32:12;;;;;;;25.73;9.20;;;;;;;;;;5113480;28;20044;-62
2024/01/28 02:34:37;;;;;;;29.17;10.75;;;;;;;;;;5113185;28;20034;-61
2024/01/28 02:37:03;;;;;;;34.40;11.67;;;;;;;;;;5113285;28;20051;-58
2024/01/28 02:39:28;;;;;;;18.97;9.10;;;;;;;;;;5113309;28;20269;-61
2024/01/28 02:41:54;;;;;;;29.77;10.17;;;;;;;;;;5111717;28;20083;-64
2024/01/28 02:44:20;;;;;;;23.02;10.18;;;;;;;;;;5109235;28;20025;-61
2024/01/28 02:46:45;;;;;;;27.03;10.03;;;;;;;;;;5110049;28;20032;-62
2024/01/28 02:49:10;;;;;;;27.17;9.60;;;;;;;;;;5108088;28;20013;-62
2024/01/28 02:51:35;;;;;;;36.77;13.20;;;;;;;;;;5109219;28;20044;-61
2024/01/28 02:54:01;;;;;;;21.30;10.38;;;;;;;;;;5108653;28;20047;-59
2024/01/28 02:56:27;;;;;;;22.98;8.65;;;;;;;;;;5112398;28;20035;-61
2024/01/28 02:58:53;;;;;;;25.03;9.93;;;;;;;;;;5112099;28;20044;-59
2024/01/28 03:01:19;;;;;;;;;;;;;;;;;;5103740;28;20042;-61
2024/01/28 03:03:44;;;;;;;23.90;9.32;;;;;;;;;;5108149;28;19967;-61
2024/01/28 03:06:10;;;;;;;25.57;10.93;;;;;;;;;;5111010;28;20121;-60
2024/01/28 03:08:35;;;;;;;19.33;9.98;;;;;;;;;;5107404;28;20020;-58
2024/01/28 03:11:00;;;;;;;26.50;9.93;;;;;;;;;;5118266;28;20039;-61
2024/01/28 03:13:26;;;;;;;33.95;9.88;;;;;;;;;;5114231;28;20031;-60
2024/01/28 03:15:54;;;;;;;25.57;9.77;;;;;;;;;;5114813;28;20081;-60
2024/01/28 03:18:21;;;;;;;25.35;8.30;;;;;;;;;;5114821;28;20024;-60
2024/01/28 03:20:47;;;;;;;16.45;8.05;;;;;;;;;;5116069;28;20020;-60
2024/01/28 03:23:12;;;;;;;28.77;8.95;;;;;;;;;;5114988;28;20069;-63
2024/01/28 03:25:38;;;;;;;23.02;9.85;;;;;;;;;;5115339;28;20035;-61
2024/01/28 03:28:05;;;;;;;28.30;9.20;;;;;;;;;;5107183;28;20024;-62
2024/01/28 03:30:31;;;;;;;21.65;9.13;;;;;;;;;;5113721;28;20269;-61
2024/01/28 03:32:56;;;;;;;18.42;9.57;;;;;;;;;;5120043;28;20087;-59
2024/01/28 03:35:21;;;;;;;27.00;8.03;;;;;;;;;;5116078;28;20032;-59
2024/01/28 03:37:47;;;;;;;26.03;10.13;;;;;;;;;;5114453;28;20280;-60
2024/01/28 03:40:13;;;;;;;27.48;8.93;;;;;;;;;;5116294;28;20103;-60
2024/01/28 03:42:38;;;;;;;31.00;9.87;;;;;;;;;;5114557;28;20047;-60
2024/01/28 03:45:04;;;;;;;23.10;9.82;;;;;;;;;;5113821;28;20052;-59
2024/01/28 03:47:29;;;;;;;17.95;8.73;;;;;;;;;;5108156;28;20061;-61
2024/01/28 03:49:55;;;;;;;20.35;9.02;;;;;;;;;;5118260;28;20052;-60
2024/01/28 03:52:21;;;;;;;20.03;8.53;;;;;;;;;;5121603;28;20040;-61
2024/01/28 03:54:46;;;;;;;31.23;9.73;;;;;;;;;;5118032;28;20264;-59
2024/01/28 03:57:12;;;;;;;35.00;10.37;;;;;;;;;;5117525;28;20267;-60
2024/01/28 03:59:38;;;;;;;19.90;8.30;;;;;;;;;;5117494;28;20043;-59
2024/01/28 04:02:04;;;;;;;20.20;7.95;;;;;;;;;;5121140;28;20303;-58
2024/01/28 04:04:30;;;;;;;28.77;9.73;;;;;;;;;;5120427;28;20023;-60
2024/01/28 04:06:56;;;;;;;20.60;8.40;;;;;;;;;;5121555;28;20039;-60
2024/01/28 04:09:21;;;;;;;25.47;9.53;;;;;;;;;;5119648;28;20032;-60
2024/01/28 04:11:47;;;;;;;25.83;9.77;;;;;;;;;;5116965;28;20272;-61
2024/01/28 04:14:13;;;;;;;27.63;9.80;;;;;;;;;;5114013;28;20020;-61
2024/01/28 04:16:38;;;;;;;19.93;6.70;;;;;;;;;;5114334;28;20059;-60
2024/01/28 04:19:04;;;;;;;22.80;8.27;;;;;;;;;;5123388;28;20277;-61
2024/01/28 04:21:29;;;;;;;25.80;10.90;;;;;;;;;;5117031;28;20039;-61
2024/01/28 04:23:56;;;;;;;19.55;8.48;;;;;;;;;;5114735;28;20052;-61
2024/01/28 04:26:22;;;;;;;30.27;8.18;;;;;;;;;;5122636;28;20031;-62
2024/01/28 04:28:47;;;;;;;33.60;11.47;;;;;;;;;;5108681;28;20016;-60
2024/01/28 04:31:13;;;;;;;22.10;9.07;;;;;;;;;;5106681;28;20040;-61
2024/01/28 04:33:39;;;;;;;27.70;8.85;;;;;;;;;;5109032;28;20031;-61
2024/01/28 04:36:05;;;;;;;26.30;8.87;;;;;;;;;;5117936;28;20028;-62
2024/01/28 04:38:31;;;;;;;26.17;9.65;;;;;;;;;;5114677;28;20028;-62
2024/01/28 04:40:57;;;;;;;24.83;9.27;;;;;;;;;;5123607;28;20091;-60
2024/01/28 04:43:22;;;;;;;29.23;9.40;;;;;;;;;;5117659;28;20054;-61
2024/01/28 04:45:48;;;;;;;30.87;10.23;;;;;;;;;;5118321;28;20302;-62
2024/01/28 04:48:13;;;;;;;25.23;9.52;;;;;;;;;;5118263;28;20115;-62
2024/01/28 04:50:39;;;;;;;20.60;9.37;;;;;;;;;;5119350;28;20039;-60
2024/01/28 04:53:04;;;;;;;25.87;8.67;;;;;;;;;;5118281;28;20054;-60
2024/01/28 04:55:29;;;;;;;25.67;8.93;;;;;;;;;;5118403;28;20079;-63
2024/01/28 04:57:55;;;;;;;28.98;9.40;;;;;;;;;;5118393;28;20028;-61
2024/01/28 05:00:20;;;;;;;23.50;10.23;;;;;;;;;;5122732;28;20054;-62
2024/01/28 05:02:46;;;;;;;28.03;9.23;;;;;;;;;;5118943;28;20299;-61
2024/01/28 05:05:12;;;;;;;23.52;7.90;;;;;;;;;;5118108;28;20032;-61
2024/01/28 05:07:37;;;;;;;23.80;8.80;;;;;;;;;;5117396;28;20078;-60
2024/01/28 05:10:03;;;;;;;25.55;9.70;;;;;;;;;;5126273;28;20023;-62
2024/01/28 05:12:28;;;;;;;21.10;7.20;;;;;;;;;;5113078;28;20056;-59
2024/01/28 05:14:54;;;;;;;24.50;9.73;;;;;;;;;;5109954;28;20059;-62
2024/01/28 05:17:19;;;;;;;28.27;9.93;;;;;;;;;;5117771;28;20031;-60
2024/01/28 05:19:45;;;;;;;25.33;10.30;;;;;;;;;;5123430;28;20038;-59
2024/01/28 05:22:11;;;;;;;26.30;9.57;;;;;;;;;;5118491;28;20280;-60
2024/01/28 05:24:36;;;;;;;26.83;9.60;;;;;;;;;;5117330;28;20036;-60
2024/01/28 05:27:02;;;;;;;24.87;8.97;;;;;;;;;;5117802;28;20075;-60
2024/01/28 05:29:28;;;;;;;;;;;;;;;;;;5117796;28;20021;-59
2024/01/28 05:31:53;;;;;;;31.00;9.83;;;;;;;;;;5117485;28;19919;-62
2024/01/28 05:34:20;;;;;;;31.83;9.70;;;;;;;;;;5117492;28;20051;-60
2024/01/28 05:36:49;;;;;;;31.30;10.52;;;;;;;;;;5103645;28;20036;-59
2024/01/28 05:39:15;;;;;;;20.23;9.73;;;;;;;;;;5116871;28;20036;-61
2024/01/28 05:41:40;;;;;;;21.00;9.50;;;;;;;;;;5126332;28;20065;-58
2024/01/28 05:44:05;;;;;;;33.10;10.50;;;;;;;;;;5117261;28;20042;-59
2024/01/28 05:46:31;;;;;;;36.28;11.27;;;;;;;;;;5116908;28;20028;-62
2024/01/28 05:48:57;;;;;;;24.87;9.33;;;;;;;;;;5117384;28;20029;-62
2024/01/28 05:51:22;;;;;;;21.07;8.43;;;;;;;;;;5123900;28;20280;-61
2024/01/28 05:53:48;;;;;;;26.08;9.75;;;;;;;;;;5106592;28;20034;-61
2024/01/28 05:56:13;;;;;;;26.58;8.38;;;;;;;;;;5119834;28;20042;-62
2024/01/28 05:58:39;;;;;;;25.90;10.10;;;;;;;;;;5116492;28;20024;-61
2024/01/28 06:01:06;;;;;;;21.07;9.43;;;;;;;;;;5119015;28;20273;-62
2024/01/28 06:03:32;;;;;;;30.05;9.10;;;;;;;;;;5116688;28;20032;-62
2024/01/28 06:05:57;;;;;;;22.67;9.10;;;;;;;;;;5121567;28;20043;-59
2024/01/28 06:08:23;;;;;;;26.00;9.57;;;;;;;;;;5116925;28;20028;-61
2024/01/28 06:10:49;;;;;;;23.85;10.73;;;;;;;;;;5116475;28;20087;-61
2024/01/28 06:13:14;;;;;;;26.13;10.33;;;;;;;;;;5116603;28;20058;-61
2024/01/28 06:15:40;;;;;;;20.25;9.88;;;;;;;;;;5111339;28;20032;-62
2024/01/28 06:18:05;;;;;;;18.87;9.73;;;;;;;;;;5110766;28;20060;-61
2024/01/28 06:20:35;;;;;;;22.30;8.07;;;;;;;;;;5120255;28;20041;-58
2024/01/28 06:23:00;;;;;;;24.33;10.13;;;;;;;;;;5120298;28;20058;-61
2024/01/28 06:25:26;;;;;;;13.98;7.93;;;;;;;;;;5116558;28;20036;-61
2024/01/28 06:27:51;;;;;;;26.30;8.60;;;;;;;;;;5102039;28;20044;-60
2024/01/28 06:30:17;;;;;;;26.92;10.35;;;;;;;;;;5106770;28;20093;-61
2024/01/28 06:32:42;;;;;;;32.83;10.52;;;;;;;;;;5115992;28;20070;-62
2024/01/28 06:35:08;;;;;;;28.83;10.47;;;;;;;;;;5118371;28;20058;-60
2024/01/28 06:37:34;;;;;;;23.90;11.07;;;;;;;;;;5124879;28;20268;-60
2024/01/28 06:39:59;;;;;;;21.80;9.63;;;;;;;;;;5115942;28;20036;-59
2024/01/28 06:42:25;;;;;;;24.90;9.20;;;;;;;;;;5123045;28;20452;-60
2024/01/28 06:44:51;;;;;;;18.75;9.73;;;;;;;;;;5115876;28;20123;-60
2024/01/28 06:47:16;;;;;;;27.52;10.60;;;;;;;;;;5115979;28;20028;-61
2024/01/28 06:49:42;;;;;;;22.17;10.40;;;;;;;;;;5098705;28;20029;-59
2024/01/28 06:52:08;;;;;;;25.10;10.23;;;;;;;;;;5113916;28;20261;-60
2024/01/28 06:54:34;;;;;;;34.13;10.53;;;;;;;;;;5115714;28;20032;-61
2024/01/28 06:56:59;;;;;;;17.37;8.67;;;;;;;;;;5119903;28;20300;-61
2024/01/28 06:59:25;;;;;;;19.08;8.75;;;;;;;;;;5116007;28;20028;-59
2024/01/28 07:01:50;;;;;;;22.23;9.70;;;;;;;;;;5118754;28;20086;-60
2024/01/28 07:04:16;;;;;;;28.20;9.97;;;;;;;;;;5115881;28;20291;-60
2024/01/28 07:06:41;;;;;;;22.73;10.23;;;;;;;;;;5115968;28;20257;-59
2024/01/28 07:09:08;;;;;;;22.52;8.27;;;;;;;;;;5115689;28;20052;-60
2024/01/28 07:11:33;;;;;;;22.40;9.02;;;;;;;;;;5115546;28;20095;-62
2024/01/28 07:13:58;;;;;;;18.08;8.20;;;;;;;;;;5115675;28;20035;-61
2024/01/28 07:16:24;;;;;;;26.70;10.10;;;;;;;;;;5115526;28;20073;-62
2024/01/28 07:18:49;;;;;;;22.23;9.73;;;;;;;;;;5115249;28;20047;-60
2024/01/28 07:21:15;;;;;;;24.77;9.73;;;;;;;;;;5122592;28;20016;-59
2024/01/28 07:23:40;;;;;;;33.40;11.30;;;;;;;;;;5125832;28;20040;-62
2024/01/28 07:26:09;;;;;;;27.97;11.10;;;;;;;;;;5117633;28;20288;-62
2024/01/28 07:28:34;;;;;;;23.95;9.88;;;;;;;;;;5114892;28;20046;-61
2024/01/28 07:31:00;;;;;;;17.57;9.70;;;;;;;;;;5120217;28;20035;-60
2024/01/28 07:33:25;;;;;;;24.52;9.25;;;;;;;;;;5125720;28;20061;-60
2024/01/28 07:35:51;;;;;;;30.90;11.63;;;;;;;;;;5125064;28;20060;-62
2024/01/28 07:38:16;;;;;;;22.17;9.13;;;;;;;;;;5117368;28;20255;-61
2024/01/28 07:40:42;;;;;;;21.10;9.97;;;;;;;;;;5117537;28;20024;-61
2024/01/28 07:43:07;;;;;;;21.85;7.80;;;;;;;;;;5117257;28;20023;-60
2024/01/28 07:45:36;;;;;;;31.77;9.93;;;;;;;;;;5115113;28;20047;-61
2024/01/28 07:48:01;;;;;;;23.48;10.32;;;;;;;;;;5128138;28;20265;-62
2024/01/28 07:50:27;;;;;;;25.15;10.35;;;;;;;;;;5115624;28;20051;-60
2024/01/28 07:52:52;;;;;;;21.07;9.20;;;;;;;;;;5127025;28;20135;-61
2024/01/28 07:55:18;;;;;;;17.63;8.88;;;;;;;;;;5115004;28;20050;-58
2024/01/28 07:57:43;;;;;;;21.00;9.05;;;;;;;;;;5114728;28;20032;-60
2024/01/28 08:00:12;;;;;;;28.10;9.82;;;;;;;;;;5113999;28;20032;-61
2024/01/28 08:02:38;;;;;;;25.70;9.90;;;;;;;;;;5125641;28;20064;-61
2024/01/28 08:05:04;;;;;;;24.70;9.32;;;;;;;;;;5113013;28;20056;-61
2024/01/28 08:07:29;;;;;;;26.63;10.37;;;;;;;;;;5114285;28;20110;-60
2024/01/28 08:09:54;;;;;;;21.25;7.80;;;;;;;;;;5114124;28;20043;-60
2024/01/28 08:12:20;;;;;;;25.67;9.20;;;;;;;;;;5115353;28;20040;-60
2024/01/28 08:14:45;;;;;;;23.43;8.80;;;;;;;;;;5123627;28;20065;-62
2024/01/28 08:17:10;;;;;;;13.57;7.33;;;;;;;;;;5117207;28;20028;-61
2024/01/28 08:19:36;;;;;;;20.13;8.97;;;;;;;;;;5114730;28;20095;-62
2024/01/28 08:22:01;;;;;;;28.92;8.77;;;;;;;;;;5121576;28;20043;-60
2024/01/28 08:24:27;;;;;;;23.08;8.27;;;;;;;;;;5114676;28;20115;-61
2024/01/28 08:26:52;;;;;;;23.97;9.30;;;;;;;;;;5126474;28;20035;-61
2024/01/28 08:29:18;;;;;;;19.90;8.15;;;;;;;;;;5114138;28;20028;-60
2024/01/28 08:31:43;;;;;;;18.77;7.83;;;;;;;;;;5114329;28;20031;-61
2024/01/28 08:34:09;;;;;;;19.60;8.00;;;;;;;;;;5123247;28;20275;-59
2024/01/28 08:36:34;;;;;;;24.47;8.43;;;;;;;;;;5110654;28;20024;-61
2024/01/28 08:39:00;;;;;;;17.03;8.13;;;;;;;;;;5114547;28;20028;-62
2024/01/28 08:41:25;;;;;;;17.10;8.32;;;;;;;;;;5113630;28;20031;-61
2024/01/28 08:43:51;;;;;;;25.70;8.10;;;;;;;;;;5115513;28;20039;-62
2024/01/28 08:46:16;;;;;;;19.85;8.95;;;;;;;;;;5117404;28;20051;-63
2024/01/28 08:48:42;;;;;;;25.97;9.87;;;;;;;;;;5104639;28;20035;-61
2024/01/28 08:51:09;;;;;;;17.98;8.73;;;;;;;;;;5114184;28;20030;-62
2024/01/28 08:53:35;;;;;;;26.88;8.30;;;;;;;;;;5115575;28;20036;-61
2024/01/28 08:56:00;;;;;;;19.83;8.50;;;;;;;;;;5114019;28;20024;-61
2024/01/28 08:58:26;;;;;;;23.02;9.25;;;;;;;;;;5114287;28;20036;-62
2024/01/28 09:00:52;;;;;;;21.50;9.85;;;;;;;;;;5115068;28;20024;-60
2024/01/28 09:03:17;;;;;;;20.95;9.20;;;;;;;;;;5132305;28;20035;-61
2024/01/28 09:05:43;;;;;;;22.27;10.17;;;;;;;;;;5119295;28;20024;-61
2024/01/28 09:08:08;;;;;;;17.83;9.25;;;;;;;;;;5124496;28;20032;-60
2024/01/28 09:10:34;;;;;;;30.87;11.63;;;;;;;;;;5111001;28;20036;-60
2024/01/28 09:12:59;;;;;;;25.43;11.17;;;;;;;;;;5117224;28;20268;-60
2024/01/28 09:15:24;;;;;;;20.57;10.20;;;;;;;;;;5114401;28;20032;-60
2024/01/28 09:17:49;;;;;;;27.57;9.70;;;;;;;;;;5116171;28;20036;-62
2024/01/28 09:20:15;;;;;;;22.80;8.43;;;;;;;;;;5114213;28;20069;-62
2024/01/28 09:22:41;;;;;;;18.87;8.30;;;;;;;;;;5124482;28;20290;-61
2024/01/28 09:25:06;;;;;;;16.83;7.23;;;;;;;;;;5122599;28;20036;-61
2024/01/28 09:27:32;;;;;;;16.77;6.47;;;;;;;;;;5118263;28;20052;-62
2024/01/28 09:29:57;;;;;;;15.17;6.63;;;;;;;;;;5117916;28;20269;-62
2024/01/28 09:32:26;;;;;;;14.77;6.37;;;;;;;;;;5126485;28;20058;-62
2024/01/28 09:34:51;;;;;;;16.67;6.73;;;;;;;;;;5121890;28;20272;-61
2024/01/28 09:37:18;;;;;;;18.13;6.55;;;;;;;;;;5117346;28;20264;-62
2024/01/28 09:39:44;;;;;;;26.45;7.95;;;;;;;;;;5117189;28;20121;-62
2024/01/28 09:42:29;;;;;;;13.68;6.78;;;;;;;;;;5126819;28;20115;-62
2024/01/28 09:44:55;;;;;;;15.63;6.50;;;;;;;;;;5128110;28;20039;-61
2024/01/28 09:47:21;;;;;;;14.90;6.32;;;;;;;;;;5117394;28;20264;-62
2024/01/28 09:49:47;;;;;;;17.52;5.90;;;;;;;;;;5111709;28;20043;-62
2024/01/28 09:52:13;;;;;;;20.65;6.47;;;;;;;;;;5119256;28;20028;-62
2024/01/28 09:54:44;;;;;;;18.70;6.65;;;;;;;;;;5117351;28;20058;-61
2024/01/28 09:57:10;;;;;;;15.93;6.27;;;;;;;;;;5120165;28;20092;-61
2024/01/28 09:59:36;;;;;;;13.10;6.15;;;;;;;;;;5116634;28;20287;-61
2024/01/28 10:02:02;;;;;;;13.25;5.82;;;;;;;;;;5110792;28;20036;-62
2024/01/28 10:04:29;;;;;;;16.33;6.33;;;;;;;;;;5116241;28;20016;-62
2024/01/28 10:06:59;;;;;;;14.87;6.67;;;;;;;;;;5128326;28;20264;-63
2024/01/28 10:09:28;;;;;;;19.53;5.73;;;;;;;;;;5115895;28;20024;-61
2024/01/28 10:11:53;;;;;;;13.33;5.93;;;;;;;;;;5119612;28;20064;-61
2024/01/28 10:14:19;;;;;;;13.07;6.07;;;;;;;;;;5116495;28;20025;-61
2024/01/28 10:16:48;;;;;;;18.98;7.22;;;;;;;;;;5116539;28;20056;-62
2024/01/28 10:19:14;;;;;;;14.37;6.20;;;;;;;;;;5098615;28;20024;-62
2024/01/28 10:21:41;;;;;;;14.68;5.72;;;;;;;;;;5110101;28;20030;-62
2024/01/28 10:24:08;;;;;;;15.60;6.53;;;;;;;;;;5105082;28;20028;-62
2024/01/28 10:26:34;;;;;;;13.67;6.00;;;;;;;;;;5119903;28;20111;-62
2024/01/28 10:28:59;;;;;;;15.70;5.50;;;;;;;;;;5114313;28;20024;-62
2024/01/28 10:31:24;;;;;;;17.30;5.18;;;;;;;;;;5116311;28;20032;-63
2024/01/28 10:33:50;;;;;;;15.27;5.68;;;;;;;;;;5110245;28;20103;-62
2024/01/28 10:36:16;;;;;;;11.38;4.47;;;;;;;;;;5120190;28;20070;-62
2024/01/28 10:38:44;;;;;;;15.73;5.27;;;;;;;;;;5121786;28;20036;-63
2024/01/28 10:41:14;;;;;;;9.57;5.23;;;;;;;;;;5115996;28;20032;-62
2024/01/28 10:43:40;;;;;;;12.73;5.40;;;;;;;;;;5118246;28;20029;-63
2024/01/28 10:46:05;;;;;;;10.07;5.22;;;;;;;;;;5128603;28;20020;-62
2024/01/28 10:48:31;;;;;;;16.50;5.65;;;;;;;;;;5116425;28;20084;-62
2024/01/28 10:50:59;;;;;;;15.25;5.22;;;;;;;;;;5115947;28;20036;-62
2024/01/28 10:53:27;;;;;;;10.83;4.53;;;;;;;;;;5122670;28;20051;-61
2024/01/28 10:55:53;;;;;;;9.07;4.40;;;;;;;;;;5115320;28;20051;-62
2024/01/28 10:58:21;;;;;;;;;;;;;;;;;;5124248;28;20095;-62
2024/01/28 11:00:47;;;;;;;17.60;5.63;;;;;;;;;;5115752;28;19912;-62
2024/01/28 11:03:12;;;;;;;;;;;;;;;;;;5119491;28;20036;-61
2024/01/28 11:05:38;;;;;;;12.53;4.73;;;;;;;;;;5115571;28;19908;-63
2024/01/28 11:08:04;;;;;;;15.63;5.88;;;;;;;;;;5127059;28;20095;-62
2024/01/28 11:10:30;;;;;;;;;;;;;;;;;;5120734;28;20047;-62
2024/01/28 11:12:56;;;;;;;8.47;4.30;;;;;;;;;;5108419;28;19979;-61
2024/01/28 11:15:21;;;;;;;14.30;4.88;;;;;;;;;;5109860;28;20028;-62
2024/01/28 11:17:47;;;;;;;16.50;4.78;;;;;;;;;;5114568;28;20036;-61
2024/01/28 11:20:16;;;;;;;11.63;4.73;;;;;;;;;;5115470;28;20032;-62
2024/01/28 11:23:00;;;;;;;13.77;5.20;;;;;;;;;;5120754;28;20268;-62
2024/01/28 11:25:27;;;;;;;7.23;4.07;;;;;;;;;;5115086;28;20028;-61
2024/01/28 11:28:00;;;;;;;14.03;6.03;;;;;;;;;;5121876;28;20028;-62
2024/01/28 11:30:26;;;;;;;10.97;4.73;;;;;;;;;;5109026;28;20039;-62
2024/01/28 11:32:55;;;;;;;11.52;4.28;;;;;;;;;;5111856;28;20028;-62
2024/01/28 11:35:22;;;;;;;9.80;4.60;;;;;;;;;;5107338;28;20028;-61
2024/01/28 11:37:57;;;;;;;10.63;4.37;;;;;;;;;;5103366;28;20024;-62
2024/01/28 11:40:23;;;;;;;11.40;4.47;;;;;;;;;;5111476;28;20036;-63
2024/01/28 11:42:51;;;;;;;12.90;4.60;;;;;;;;;;5119252;28;20121;-62
2024/01/28 11:45:16;;;;;;;13.03;4.30;;;;;;;;;;5111268;28;20028;-62
2024/01/28 11:47:42;;;;;;;13.85;4.63;;;;;;;;;;5112481;28;20066;-61
2024/01/28 11:50:08;;;;;;;;;;;;;;;;;;5105738;28;20033;-62
2024/01/28 11:52:33;;;;;;;11.02;4.55;;;;;;;;;;5110662;28;19983;-62
2024/01/28 11:54:58;;;;;;;;;;;;;;;;;;5115024;28;20044;-63
2024/01/28 11:57:24;;;;;;;10.65;5.10;;;;;;;;;;5121909;28;19908;-61
2024/01/28 11:59:49;;;;;;;;;;;;;;;;;;5114235;28;20035;-62
2024/01/28 12:02:17;;;;;;;11.40;4.97;;;;;;;;;;5111705;28;19911;-61
2024/01/28 12:04:42;;;;;;;10.52;4.53;;;;;;;;;;5110444;28;20051;-62
2024/01/28 12:07:08;;;;;;;12.27;5.00;;;;;;;;;;5115987;28;20087;-62
2024/01/28 12:09:37;;;;;;;12.40;5.35;;;;;;;;;;5110557;28;20027;-61
2024/01/28 12:12:02;;;;;;;10.30;4.25;;;;;;;;;;5105912;28;20131;-62
2024/01/28 12:14:28;;;;;;;10.10;4.55;;;;;;;;;;5113990;28;20149;-62
2024/01/28 12:16:53;;;;;;;8.75;4.07;;;;;;;;;;5113099;28;20036;-61
2024/01/28 12:19:19;;;;;;;12.60;4.90;;;;;;;;;;5114218;28;20028;-62
2024/01/28 12:21:46;;;;;;;11.65;5.05;;;;;;;;;;5104139;28;20087;-62
2024/01/28 12:24:12;;;;;;;8.40;4.30;;;;;;;;;;5119077;28;20044;-61
2024/01/28 12:26:37;;;;;;;8.60;4.13;;;;;;;;;;5111094;28;20035;-62
2024/01/28 12:29:03;;;;;;;10.43;3.88;;;;;;;;;;5116268;28;20035;-62
2024/01/28 12:31:30;;;;;;;10.73;4.32;;;;;;;;;;5114359;28;20028;-63
2024/01/28 12:33:57;;;;;;;14.45;4.47;;;;;;;;;;5123281;28;20096;-61
2024/01/28 12:36:22;;;;;;;10.98;4.47;;;;;;;;;;5113364;28;20028;-62
2024/01/28 12:38:47;;;;;;;6.88;3.67;;;;;;;;;;5114177;28;20035;-61
2024/01/28 12:41:13;;;;;;;10.10;4.78;;;;;;;;;;5113375;28;20039;-62
2024/01/28 12:43:40;;;;;;;11.93;4.38;;;;;;;;;;5121658;28;20024;-63
2024/01/28 12:46:05;;;;;;;11.18;4.55;;;;;;;;;;5114597;28;20028;-61
2024/01/28 12:48:31;;;;;;;14.90;4.38;;;;;;;;;;5115032;28;20096;-61
2024/01/28 12:50:57;;;;;;;7.70;3.83;;;;;;;;;;5114628;28;20032;-61
2024/01/28 12:53:22;;;;;;;11.25;4.57;;;;;;;;;;5118091;28;20051;-61
2024/01/28 12:55:48;;;;;;;10.23;4.50;;;;;;;;;;5112855;28;20092;-62
2024/01/28 12:58:13;;;;;;;9.63;4.10;;;;;;;;;;5113023;28;20047;-62
2024/01/28 13:00:39;;;;;;;9.68;3.88;;;;;;;;;;5113344;28;20063;-61
2024/01/28 13:03:05;;;;;;;10.80;3.65;;;;;;;;;;5113917;28;20032;-61
2024/01/28 13:05:31;;;;;;;8.82;4.15;;;;;;;;;;5120082;28;20050;-62
2024/01/28 13:07:57;;;;;;;12.68;4.93;;;;;;;;;;5117340;28;20024;-61
2024/01/28 13:10:22;;;;;;;8.75;3.75;;;;;;;;;;5121477;28;20054;-62
2024/01/28 13:12:49;;;;;;;11.73;4.28;;;;;;;;;;5124041;28;20038;-62
2024/01/28 13:15:14;;;;;;;9.48;3.78;;;;;;;;;;5119539;28;20027;-61
2024/01/28 13:17:40;;;;;;;9.70;4.03;;;;;;;;;;5116965;28;20054;-62
2024/01/28 13:20:08;;;;;;;9.10;3.83;;;;;;;;;;5117279;28;20042;-61
2024/01/28 13:22:34;;;;;;;9.30;4.13;;;;;;;;;;5118717;28;20020;-61
2024/01/28 13:24:59;;;;;;;10.07;4.35;;;;;;;;;;5110070;28;20048;-61
2024/01/28 13:27:25;;;;;;;10.68;4.38;;;;;;;;;;5107452;28;20050;-61
2024/01/28 13:29:51;;;;;;;8.52;4.00;;;;;;;;;;5103764;28;20031;-61
2024/01/28 13:32:18;;;;;;;;;;;;;;;;;;5118118;28;20036;-62
2024/01/28 13:34:44;;;;;;;12.43;4.55;;;;;;;;;;5115606;28;19908;-61
2024/01/28 13:37:09;;;;;;;10.10;4.65;;;;;;;;;;5104039;28;20100;-62
2024/01/28 13:39:35;;;;;;;10.70;4.13;;;;;;;;;;5117319;28;20035;-61
2024/01/28 13:42:00;;;;;;;;;;;;;;;;;;5129695;28;20043;-61
2024/01/28 13:44:25;;;;;;;10.68;4.50;;;;;;;;;;5120604;28;19919;-62
2024/01/28 13:46:51;;;;;;;8.80;4.05;;;;;;;;;;5116723;28;20036;-61
2024/01/28 13:49:16;;;;;;;;;;;;;;;;;;5122916;28;20032;-62
2024/01/28 13:51:41;;;;;;;9.93;3.80;;;;;;;;;;5123832;28;19912;-61
2024/01/28 13:54:06;;;;;;;8.02;3.88;;;;;;;;;;5103458;28;20024;-61
2024/01/28 13:56:32;;;;;;;9.18;3.80;;;;;;;;;;5116685;28;20025;-61
2024/01/28 13:58:57;;;;;;;;;;;;;;;;;;5124443;28;20032;-61
2024/01/28 14:01:23;;;;;;;10.02;3.97;;;;;;;;;;5116281;28;19980;-62
2024/01/28 14:03:49;;;;;;;12.48;4.30;;;;;;;;;;5115591;28;20035;-61
2024/01/28 14:06:15;;;;;;;;;;;;;;;;;;5116562;28;20027;-61
2024/01/28 14:08:40;;;;;;;12.88;5.38;;;;;;;;;;5115485;28;19919;-62
2024/01/28 14:11:06;;;;;;;;;;;;;;;;;;5116903;28;20032;-60
2024/01/28 14:13:31;;;;;;;12.95;5.15;;;;;;;;;;5124531;28;19908;-60
2024/01/28 14:15:57;;;;;;;10.77;4.50;;;;;;;;;;5115893;28;20098;-61
2024/01/28 14:18:22;;;;;;;10.60;4.75;;;;;;;;;;5113014;28;20058;-61
2024/01/28 14:20:48;;;;;;;16.70;4.63;;;;;;;;;;5108842;28;20490;-61
2024/01/28 14:23:13;;;;;;;9.32;5.20;;;;;;;;;;5115900;28;20043;-61
2024/01/28 14:25:39;;;;;;;12.20;4.60;;;;;;;;;;5114747;28;20093;-62